To NAV CANADA Home Page Login to a new session Search on AWWS site Feedback and Comments Disclaimer Vers la page française équivalente Tips FAQ What's new on the site To the Forecasts and Observations / NOTAM section To "File a Flight Plan" website Publications and other links Update of the User's profile FIC Telephone Numbers My Weather Data Folder Route Weather Data Regional Weather Data Local Weather Data To the Forecasts and Observations / NOTAM section
Request Generated 12/04/2016 at 22:17:10 UTC . Weather information available at that time is displayed.

METAR/TAF

If you find any discrepancies between the coded METAR/TAF and the plain language METAR/TAF please use the coded METAR/TAF. LWIS bulletins are not decoded in plain language.

VANCOUVER INTL/BC    (show WxCam)

METAR CYVR 042200Z 30016KT 30SM BKN230 06/01 A3001 RMK CI5 SLP164=
METAR
LOCATION
CYVR - VANCOUVER INTL/BC
DATE - TIME
04 DECEMBER 2016 - 2200 UTC
WIND
300 TRUE @ 16  KNOTS
VISIBILITY
30 STAT.  MILES
RUNWAY VISUAL RANGE
WEATHER
CLOUDINESS
BROKEN CLOUDS (5/8 - 7/8) 23000  FT
TEMP / DEWPOINT
6 C / 1 C
ALTIMETER
30.01 IN HG
RECENT WEATHER
WIND SHEAR

METAR CYVR 042100Z 30017G25KT 30SM FEW240 06/01 A3001 RMK CI2 SLP165=
METAR
LOCATION
CYVR - VANCOUVER INTL/BC
DATE - TIME
04 DECEMBER 2016 - 2100 UTC
WIND
300 TRUE @ 17  KNOTS
GUSTS
25 KNOTS
VISIBILITY
30 STAT.  MILES
RUNWAY VISUAL RANGE
WEATHER
CLOUDINESS
FEW CLOUDS (1/8 - 2/8) 24000  FT
TEMP / DEWPOINT
6 C / 1 C
ALTIMETER
30.01 IN HG
RECENT WEATHER
WIND SHEAR

METAR CYVR 042000Z 30022KT 30SM FEW030 FEW240 06/01 A3000 RMK CF1CI1 CF TR SLP161=
METAR
LOCATION
CYVR - VANCOUVER INTL/BC
DATE - TIME
04 DECEMBER 2016 - 2000 UTC
WIND
300 TRUE @ 22  KNOTS
VISIBILITY
30 STAT.  MILES
RUNWAY VISUAL RANGE
WEATHER
CLOUDINESS
FEW CLOUDS (1/8 - 2/8) 3000  FT
FEW CLOUDS (1/8 - 2/8) 24000  FT
TEMP / DEWPOINT
6 C / 1 C
ALTIMETER
30.00 IN HG
RECENT WEATHER
WIND SHEAR

TAF CYVR 042038Z 0421/0524 30015G25KT P6SM FEW030 SCT220 BECMG 0502/0504 08008KT FM051100 08008KT 6SM -SHRASN BR OVC015 TEMPO 0511/0521 2SM -SHSN OVC008 FM052100 09010KT P6SM SCT025 BKN040 TEMPO 0521/0524 P6SM -SHRA BKN020 RMK NXT FCST BY 050000Z=
TAF
LOCATION

CYVR - VANCOUVER INTL/BC
VALIDITY [UTC]
04 DEC - 2038 to
06 DEC - 0000
 
TIMES
[UTC]
WIND
[DEGREES TRUE]
VISIBILITY
[STAT. MILES]
WEATHER
CLOUDINESS
[FEET AGL]
 
04 DEC - 2100 to
05 DEC - 1100
300 @ 15 KNOTS
GUSTS 25 KNOTS
6+
NIL
3000 FEW
22000 SCATTERED
BECOMING
05 DEC - 0200 to
05 DEC - 0400
80 @ 8 KNOTS
 
 
 
 
05 DEC - 1100 to
05 DEC - 2100
80 @ 8 KNOTS
6
LIGHT RAIN SHOWER
LIGHT SNOW SHOWER
MIST
1500 OVERCAST
TEMPORARY CHANGES
05 DEC - 1100 to
05 DEC - 2100
 
2
LIGHT SNOW SHOWER
800 OVERCAST
 
05 DEC - 2100 to
06 DEC - 0000
90 @ 10 KNOTS
6+
NIL
2500 SCATTERED
4000 BROKEN
TEMPORARY CHANGES
05 DEC - 2100 to
06 DEC - 0000
 
6+
LIGHT RAIN SHOWER
2000 BROKEN
REMARKS
THE NEXT FORECAST WILL BE ISSUED BY 0000 UTC ON DAY 05


Your time UTC time
Weather data provided by Environment Canada and NAV CANADA